createdAt,value
2023-04-18T00:00:47.005Z,39.49
2023-04-18T00:01:46.500Z,40.35
2023-04-18T00:02:46.645Z,39.33
2023-04-18T00:03:46.705Z,38.33
2023-04-18T00:04:46.601Z,40.23
2023-04-18T00:05:46.489Z,37.15
2023-04-18T00:06:46.485Z,39.26
2023-04-18T00:07:46.490Z,40.06
2023-04-18T00:08:46.489Z,39.28
2023-04-18T00:09:46.501Z,39.41
2023-04-18T00:10:46.500Z,39.00
2023-04-18T00:11:46.511Z,40.16
2023-04-18T00:12:46.490Z,39.06
2023-04-18T00:13:46.494Z,38.45
2023-04-18T00:14:46.506Z,38.71
2023-04-18T00:15:46.493Z,38.64
2023-04-18T00:16:46.597Z,40.35
2023-04-18T00:17:46.560Z,40.26
2023-04-18T00:18:46.529Z,38.02
2023-04-18T00:19:46.529Z,39.44
2023-04-18T00:20:46.526Z,36.46
2023-04-18T00:21:46.539Z,38.21
2023-04-18T00:22:46.675Z,37.84
2023-04-18T00:23:46.548Z,38.45
2023-04-18T00:24:46.555Z,38.38
2023-04-18T00:25:46.638Z,38.26
2023-04-18T00:26:46.564Z,39.53
2023-04-18T00:27:46.572Z,39.04
2023-04-18T00:28:46.576Z,37.76
2023-04-18T00:29:46.594Z,37.75
2023-04-18T00:30:46.630Z,37.80
2023-04-18T00:31:46.590Z,38.65
2023-04-18T00:32:46.640Z,39.71
2023-04-18T00:33:46.593Z,39.89
2023-04-18T00:34:46.597Z,39.60
2023-04-18T00:35:46.608Z,36.94
2023-04-18T00:36:46.605Z,39.61
2023-04-18T00:37:46.617Z,38.73
2023-04-18T00:38:46.620Z,39.22
2023-04-18T00:39:46.635Z,38.55
2023-04-18T00:40:46.640Z,38.32
2023-04-18T00:41:46.639Z,39.28
2023-04-18T00:42:46.642Z,39.32
2023-04-18T00:43:46.644Z,40.83
2023-04-18T00:44:46.636Z,38.41
2023-04-18T00:45:46.658Z,38.79
2023-04-18T00:46:46.652Z,39.53
2023-04-18T00:47:46.799Z,36.69
2023-04-18T00:48:46.677Z,37.83
2023-04-18T00:49:46.680Z,40.29
2023-04-18T00:50:46.724Z,38.27
2023-04-18T00:51:46.699Z,39.93
2023-04-18T00:52:46.861Z,36.42
2023-04-18T00:53:46.706Z,38.51
2023-04-18T00:54:46.719Z,40.47
2023-04-18T00:55:46.712Z,38.94
2023-04-18T00:56:46.726Z,37.74
2023-04-18T00:57:46.712Z,38.60
2023-04-18T00:58:46.721Z,37.26
2023-04-18T00:59:46.722Z,38.49
2023-04-18T01:00:46.725Z,38.44
2023-04-18T01:01:46.763Z,39.22
2023-04-18T01:02:46.818Z,38.64
2023-04-18T01:03:46.901Z,39.63
2023-04-18T01:04:46.751Z,39.77
2023-04-18T01:05:46.754Z,37.85
2023-04-18T01:06:46.764Z,38.15
2023-04-18T01:07:46.760Z,37.55
2023-04-18T01:08:46.776Z,37.26
2023-04-18T01:09:46.779Z,36.08
2023-04-18T01:10:46.796Z,40.04
2023-04-18T01:11:46.797Z,39.20
2023-04-18T01:12:46.795Z,39.75
2023-04-18T01:13:46.805Z,37.32
2023-04-18T01:14:46.810Z,37.92
2023-04-18T01:15:46.855Z,39.32
2023-04-18T01:16:46.812Z,36.80
2023-04-18T01:17:46.885Z,38.20
2023-04-18T01:18:46.825Z,36.99
2023-04-18T01:19:46.845Z,38.91
2023-04-18T01:20:46.838Z,38.74
2023-04-18T01:21:46.846Z,38.77
2023-04-18T01:22:46.857Z,39.09
2023-04-18T01:23:46.848Z,37.80
2023-04-18T01:24:46.873Z,38.57
2023-04-18T01:25:46.873Z,38.90
2023-04-18T01:26:46.861Z,39.85
2023-04-18T01:27:46.870Z,37.75
2023-04-18T01:28:46.871Z,39.20
2023-04-18T01:29:46.884Z,38.79
2023-04-18T01:30:46.937Z,39.26
2023-04-18T01:31:47.056Z,37.23
2023-04-18T01:32:47.019Z,38.84
2023-04-18T01:33:46.977Z,38.39
2023-04-18T01:34:46.991Z,36.51
2023-04-18T01:35:47.027Z,38.24
2023-04-18T01:36:47.058Z,36.76
2023-04-18T01:37:47.107Z,37.87
2023-04-18T01:38:47.146Z,36.90
2023-04-18T01:39:47.192Z,37.12
2023-04-18T01:40:47.231Z,35.90
2023-04-18T01:41:47.240Z,38.52
2023-04-18T01:42:47.275Z,35.97
2023-04-18T01:43:47.279Z,36.91
2023-04-18T01:44:47.292Z,34.79
2023-04-18T01:45:47.319Z,37.13
2023-04-18T01:46:47.386Z,34.93
2023-04-18T01:47:47.404Z,34.45
2023-04-18T01:48:47.422Z,35.45
2023-04-18T01:49:47.437Z,35.42
2023-04-18T01:50:47.453Z,32.67
2023-04-18T01:51:47.491Z,33.26
2023-04-18T01:52:47.540Z,34.99
2023-04-18T01:53:47.588Z,34.71
2023-04-18T01:54:47.644Z,33.87
2023-04-18T01:55:47.692Z,33.77
2023-04-18T01:56:47.751Z,35.36
2023-04-18T01:57:47.809Z,34.30
2023-04-18T01:58:47.855Z,33.31
2023-04-18T01:59:47.915Z,34.23
2023-04-18T02:00:47.982Z,32.61
2023-04-18T02:01:48.030Z,30.84
2023-04-18T02:02:48.179Z,31.84
2023-04-18T02:03:48.351Z,32.64
2023-04-18T02:04:48.203Z,34.81
2023-04-18T02:05:48.250Z,33.49
2023-04-18T02:06:48.303Z,31.58
2023-04-18T02:07:48.362Z,32.78
2023-04-18T02:08:48.411Z,32.40
2023-04-18T02:09:48.448Z,33.03
2023-04-18T02:10:48.498Z,31.48
2023-04-18T02:11:48.547Z,30.61
2023-04-18T02:12:48.607Z,31.85
2023-04-18T02:13:48.676Z,30.49
2023-04-18T02:14:48.723Z,30.27
2023-04-18T02:15:48.795Z,32.20
2023-04-18T02:16:48.872Z,31.28
2023-04-18T02:17:49.014Z,30.09
2023-04-18T02:18:48.943Z,29.57
2023-04-18T02:19:49.005Z,32.32
2023-04-18T02:20:49.059Z,28.96
2023-04-18T02:21:49.115Z,27.25
2023-04-18T02:22:49.167Z,29.54
2023-04-18T02:23:49.219Z,29.81
2023-04-18T02:24:49.275Z,29.42
2023-04-18T02:25:49.328Z,28.98
2023-04-18T02:26:49.372Z,29.48
2023-04-18T02:27:49.434Z,27.94
2023-04-18T02:28:49.479Z,29.89
2023-04-18T02:29:49.528Z,27.14
2023-04-18T02:30:49.603Z,27.34
2023-04-18T02:31:49.683Z,27.64
2023-04-18T02:32:49.731Z,30.11
2023-04-18T02:33:49.772Z,29.19
2023-04-18T02:34:49.831Z,29.12
2023-04-18T02:35:49.898Z,28.34
2023-04-18T02:36:49.947Z,30.40
2023-04-18T02:37:50.011Z,27.82
2023-04-18T02:38:50.046Z,28.97
2023-04-18T02:39:50.101Z,29.08
2023-04-18T02:40:50.163Z,28.65
2023-04-18T02:41:50.214Z,29.08
2023-04-18T02:42:50.284Z,28.11
2023-04-18T02:43:50.327Z,28.23
2023-04-18T02:44:50.340Z,30.87
2023-04-18T02:45:50.452Z,27.93
2023-04-18T02:46:50.479Z,28.72
2023-04-18T02:47:55.364Z,28.12
2023-04-18T02:48:51.509Z,28.33
2023-04-18T02:49:50.497Z,28.79
2023-04-18T02:50:50.507Z,28.62
2023-04-18T02:51:50.499Z,29.12
2023-04-18T02:52:50.500Z,29.91
2023-04-18T02:53:50.466Z,31.54
2023-04-18T02:54:50.463Z,30.26
2023-04-18T02:55:50.448Z,29.06
2023-04-18T02:56:50.452Z,26.58
2023-04-18T02:57:50.464Z,27.84
2023-04-18T02:58:50.476Z,30.17
2023-04-18T02:59:50.519Z,29.64
2023-04-18T03:00:50.569Z,28.63
2023-04-18T03:01:50.641Z,27.34
2023-04-18T03:02:50.856Z,27.33
2023-04-18T03:03:50.736Z,30.58
2023-04-18T03:04:50.924Z,28.05
2023-04-18T03:05:50.850Z,29.25
2023-04-18T03:06:50.916Z,28.77
2023-04-18T03:07:50.973Z,26.91
2023-04-18T03:08:51.030Z,28.08
2023-04-18T03:09:51.075Z,29.28
2023-04-18T03:10:51.137Z,26.90
2023-04-18T03:11:51.193Z,28.86
2023-04-18T03:12:51.239Z,29.52
2023-04-18T03:13:51.302Z,29.14
2023-04-18T03:14:51.348Z,27.00
2023-04-18T03:15:51.439Z,27.35
2023-04-18T03:16:53.888Z,28.30
2023-04-18T03:17:51.478Z,30.77
2023-04-18T03:18:51.464Z,29.93
2023-04-18T03:19:51.438Z,26.71
2023-04-18T03:20:51.477Z,28.59
2023-04-18T03:21:51.455Z,27.39
2023-04-18T03:22:51.411Z,27.14
2023-04-18T03:23:51.392Z,27.53
2023-04-18T03:24:51.376Z,27.70
2023-04-18T03:25:51.392Z,27.35
2023-04-18T03:26:51.365Z,28.00
2023-04-18T03:27:51.491Z,30.05
2023-04-18T03:28:51.342Z,27.26
2023-04-18T03:29:51.332Z,27.94
2023-04-18T03:30:51.348Z,27.21
2023-04-18T03:31:51.313Z,26.34
2023-04-18T03:32:51.328Z,28.42
2023-04-18T03:33:51.293Z,28.28
2023-04-18T03:34:51.281Z,27.62
2023-04-18T03:35:51.275Z,25.80
2023-04-18T03:36:51.284Z,28.00
2023-04-18T03:37:51.244Z,29.92
2023-04-18T03:38:51.232Z,29.02
2023-04-18T03:39:51.221Z,30.25
2023-04-18T03:40:51.210Z,29.33
2023-04-18T03:41:51.200Z,29.01
2023-04-18T03:42:51.207Z,27.76
2023-04-18T03:43:51.273Z,31.04
2023-04-18T03:44:51.330Z,28.89
2023-04-18T03:45:51.492Z,26.39
2023-04-18T03:46:51.473Z,28.58
2023-04-18T03:47:51.545Z,28.77
2023-04-18T03:48:51.559Z,28.73
2023-04-18T03:49:51.611Z,28.75
2023-04-18T03:50:51.681Z,28.58
2023-04-18T03:51:51.720Z,27.29
2023-04-18T03:52:51.779Z,27.53
2023-04-18T03:53:51.834Z,27.25
2023-04-18T03:54:51.888Z,28.30
2023-04-18T03:55:51.961Z,26.49
2023-04-18T03:56:52.011Z,29.63
2023-04-18T03:57:52.063Z,31.52
2023-04-18T03:58:52.114Z,26.41
2023-04-18T03:59:52.180Z,28.54
2023-04-18T04:00:52.235Z,28.50
2023-04-18T04:01:52.318Z,28.38
2023-04-18T04:02:52.513Z,26.37
2023-04-18T04:03:52.561Z,26.57
2023-04-18T04:04:52.472Z,25.91
2023-04-18T04:05:52.514Z,27.83
2023-04-18T04:06:52.564Z,27.73
2023-04-18T04:07:52.627Z,27.68
2023-04-18T04:08:52.677Z,28.61
2023-04-18T04:09:52.734Z,27.07
2023-04-18T04:10:52.800Z,28.12
2023-04-18T04:11:52.959Z,25.96
2023-04-18T04:12:52.908Z,27.29
2023-04-18T04:13:52.950Z,28.27
2023-04-18T04:14:53.008Z,25.79
2023-04-18T04:15:53.156Z,26.04
2023-04-18T04:16:53.215Z,27.18
2023-04-18T04:17:53.225Z,27.08
2023-04-18T04:18:53.242Z,28.96
2023-04-18T04:19:53.285Z,28.31
2023-04-18T04:20:53.346Z,27.30
2023-04-18T04:21:53.393Z,28.01
2023-04-18T04:22:53.445Z,26.03
2023-04-18T04:23:53.519Z,27.18
2023-04-18T04:24:53.574Z,28.21
2023-04-18T04:25:53.648Z,27.36
2023-04-18T04:26:53.679Z,26.59
2023-04-18T04:27:53.771Z,27.47
2023-04-18T04:28:53.788Z,28.22
2023-04-18T04:29:53.835Z,28.14
2023-04-18T04:30:53.916Z,27.91
2023-04-18T04:31:54.001Z,29.03
2023-04-18T04:32:54.046Z,27.67
2023-04-18T04:33:54.079Z,29.14
2023-04-18T04:34:54.130Z,28.42
2023-04-18T04:35:54.193Z,29.29
2023-04-18T04:36:54.233Z,28.79
2023-04-18T04:37:54.288Z,33.11
2023-04-18T04:38:54.344Z,26.74
2023-04-18T04:39:54.393Z,27.88
2023-04-18T04:40:54.455Z,27.80
2023-04-18T04:41:54.510Z,29.58
2023-04-18T04:42:54.564Z,28.15
2023-04-18T04:43:54.627Z,29.89
2023-04-18T04:44:54.772Z,27.64
2023-04-18T04:45:55.658Z,27.24
2023-04-18T04:46:54.793Z,28.92
2023-04-18T04:47:54.936Z,25.53
2023-04-18T04:48:54.903Z,28.65
2023-04-18T04:49:54.966Z,30.60
2023-04-18T04:50:55.019Z,29.21
2023-04-18T04:51:55.066Z,30.39
2023-04-18T04:52:55.124Z,28.20
2023-04-18T04:53:55.180Z,29.93
2023-04-18T04:54:55.248Z,32.22
2023-04-18T04:55:55.299Z,28.81
2023-04-18T04:56:55.362Z,29.83
2023-04-18T04:57:55.415Z,29.24
2023-04-18T04:58:55.476Z,28.97
2023-04-18T04:59:55.524Z,28.29
2023-04-18T05:00:55.611Z,29.92
2023-04-18T05:01:55.696Z,30.33
2023-04-18T05:02:55.822Z,30.78
2023-04-18T05:03:55.950Z,29.83
2023-04-18T05:04:55.823Z,30.00
2023-04-18T05:05:55.876Z,27.51
2023-04-18T05:06:55.944Z,28.70
2023-04-18T05:07:55.999Z,31.20
2023-04-18T05:08:56.052Z,30.99
2023-04-18T05:09:56.145Z,29.95
2023-04-18T05:10:56.174Z,28.24
2023-04-18T05:11:56.232Z,28.54
2023-04-18T05:12:56.294Z,29.39
2023-04-18T05:13:56.352Z,28.94
2023-04-18T05:14:56.405Z,26.00
2023-04-18T05:15:56.455Z,27.02
2023-04-18T05:16:56.554Z,29.10
2023-04-18T05:17:56.572Z,27.10
2023-04-18T05:18:56.624Z,27.83
2023-04-18T05:19:56.707Z,28.72
2023-04-18T05:20:56.722Z,29.54
2023-04-18T05:21:56.815Z,27.80
2023-04-18T05:22:56.831Z,30.35
2023-04-18T05:23:56.891Z,30.25
2023-04-18T05:24:56.948Z,44.25
2023-04-18T05:25:56.995Z,41.18
2023-04-18T05:26:57.048Z,47.32
2023-04-18T05:27:57.106Z,55.85
2023-04-18T05:28:57.146Z,61.43
2023-04-18T05:29:57.188Z,64.92
2023-04-18T05:30:57.255Z,69.82
2023-04-18T05:31:57.286Z,77.25
2023-04-18T05:32:57.354Z,88.77
2023-04-18T05:33:57.382Z,102.62
2023-04-18T05:34:57.424Z,118.77
2023-04-18T05:35:57.457Z,126.04
2023-04-18T05:36:57.466Z,142.85
2023-04-18T05:37:57.481Z,155.65
2023-04-18T05:38:57.492Z,166.81
2023-04-18T05:39:59.905Z,174.25
2023-04-18T05:40:57.491Z,191.82
2023-04-18T05:41:57.460Z,200.24
2023-04-18T05:42:57.430Z,211.77
2023-04-18T05:44:16.751Z,217.62
2023-04-18T05:44:58.390Z,218.31
2023-04-18T05:45:58.015Z,219.83
2023-04-18T05:46:58.052Z,226.31
2023-04-18T05:47:57.407Z,239.60
2023-04-18T05:48:57.287Z,219.32
2023-04-18T05:49:57.262Z,225.53
2023-04-18T05:50:57.240Z,237.37
2023-04-18T05:51:57.283Z,257.48
2023-04-18T05:52:57.205Z,287.63
2023-04-18T05:53:57.164Z,272.33
2023-04-18T05:54:57.137Z,250.90
2023-04-18T05:55:57.096Z,250.00
2023-04-18T05:56:57.086Z,249.67
2023-04-18T05:57:57.029Z,250.00
2023-04-18T05:58:57.013Z,248.53
2023-04-18T05:59:56.980Z,250.00
2023-04-18T06:00:56.942Z,249.60
2023-04-18T06:01:56.946Z,250.00
2023-04-18T06:02:57.050Z,250.00
2023-04-18T06:03:57.060Z,250.00
2023-04-18T06:04:57.193Z,250.00
2023-04-18T06:05:56.837Z,250.00
2023-04-18T06:06:56.734Z,250.00
2023-04-18T06:07:56.693Z,249.65
2023-04-18T06:08:56.665Z,250.00
2023-04-18T06:09:56.644Z,249.63
2023-04-18T06:10:56.609Z,250.00
2023-04-18T06:11:56.563Z,250.00
2023-04-18T06:12:56.599Z,250.00
2023-04-18T06:13:56.508Z,249.90
2023-04-18T06:14:56.499Z,249.96
2023-04-18T06:15:56.566Z,249.60
2023-04-18T06:16:56.568Z,250.32
2023-04-18T06:17:56.631Z,250.00
2023-04-18T06:18:57.878Z,249.80
2023-04-18T06:19:56.601Z,250.00
2023-04-18T06:20:56.607Z,249.17
2023-04-18T06:21:57.071Z,250.00
2023-04-18T06:22:56.512Z,244.51
2023-04-18T06:23:56.525Z,239.26
2023-04-18T06:24:56.483Z,244.73
2023-04-18T06:25:56.428Z,244.83
2023-04-18T06:26:56.388Z,243.60
2023-04-18T06:27:56.359Z,241.48
2023-04-18T06:28:56.340Z,239.11
2023-04-18T06:29:56.364Z,237.75
2023-04-18T06:30:56.301Z,236.64
2023-04-18T06:31:56.323Z,235.60
2023-04-18T06:32:56.266Z,235.12
2023-04-18T06:33:56.228Z,234.44
2023-04-18T06:34:56.194Z,234.27
2023-04-18T06:35:56.205Z,233.28
2023-04-18T06:36:56.128Z,232.48
2023-04-18T06:37:56.107Z,232.26
2023-04-18T06:38:56.078Z,232.29
2023-04-18T06:39:56.042Z,231.53
2023-04-18T06:40:56.019Z,231.72
2023-04-18T06:41:56.001Z,230.69
2023-04-18T06:42:55.971Z,230.42
2023-04-18T06:44:03.813Z,230.12
2023-04-18T06:44:56.933Z,230.28
2023-04-18T06:45:55.971Z,230.34
2023-04-18T06:46:55.905Z,229.83
2023-04-18T06:47:55.901Z,229.09
2023-04-18T06:48:55.857Z,228.25
2023-04-18T06:49:55.819Z,228.23
2023-04-18T06:50:55.795Z,227.28
2023-04-18T06:51:55.778Z,227.89
2023-04-18T06:52:55.774Z,226.43
2023-04-18T06:53:55.762Z,225.96
2023-04-18T06:54:55.719Z,226.77
2023-04-18T06:55:55.721Z,225.09
2023-04-18T06:56:55.655Z,225.00
2023-04-18T06:57:55.639Z,225.44
2023-04-18T06:58:55.633Z,224.78
2023-04-18T06:59:55.612Z,225.49
2023-04-18T07:00:55.628Z,223.14
2023-04-18T07:01:55.594Z,223.98
2023-04-18T07:02:55.672Z,223.81
2023-04-18T07:03:55.694Z,223.50
2023-04-18T07:04:55.574Z,224.29
2023-04-18T07:05:55.613Z,223.18
2023-04-18T07:06:55.648Z,221.59
2023-04-18T07:07:55.645Z,221.05
2023-04-18T07:08:55.669Z,219.74
2023-04-18T07:09:55.703Z,220.46
2023-04-18T07:10:55.694Z,219.38
2023-04-18T07:11:55.751Z,219.04
2023-04-18T07:12:55.749Z,217.36
2023-04-18T07:13:55.777Z,216.44
2023-04-18T07:14:55.791Z,216.90
2023-04-18T07:15:55.810Z,216.78
2023-04-18T07:16:55.841Z,217.54
2023-04-18T07:17:55.903Z,217.06
2023-04-18T07:18:55.867Z,217.95
2023-04-18T07:19:55.878Z,218.43
2023-04-18T07:20:55.889Z,220.15
2023-04-18T07:21:55.894Z,221.05
2023-04-18T07:22:55.880Z,218.12
2023-04-18T07:23:55.897Z,216.33
2023-04-18T07:24:55.883Z,211.78
2023-04-18T07:25:56.592Z,212.66
2023-04-18T07:26:55.882Z,210.07
2023-04-18T07:27:56.022Z,207.17
2023-04-18T07:28:55.822Z,205.29
2023-04-18T07:29:55.810Z,204.32
2023-04-18T07:30:56.705Z,202.91
2023-04-18T07:31:55.798Z,203.39
2023-04-18T07:32:55.809Z,203.41
2023-04-18T07:33:55.781Z,203.03
2023-04-18T07:34:55.788Z,202.71
2023-04-18T07:35:55.800Z,200.26
2023-04-18T07:36:55.816Z,129.25
2023-04-18T07:37:55.840Z,100.93
2023-04-18T07:38:55.896Z,81.09
2023-04-18T07:39:55.941Z,62.97
2023-04-18T07:40:56.589Z,44.06
2023-04-18T07:41:56.028Z,30.58
2023-04-18T07:42:55.987Z,28.00
2023-04-18T07:43:56.000Z,23.59
2023-04-18T07:44:56.002Z,21.38
2023-04-18T07:45:56.688Z,17.76
2023-04-18T07:46:56.011Z,16.05
2023-04-18T07:47:56.075Z,25.02
2023-04-18T07:48:56.072Z,25.80
2023-04-18T07:49:56.670Z,24.42
2023-04-18T07:50:56.117Z,27.77
2023-04-18T07:51:56.162Z,25.46
2023-04-18T07:52:56.189Z,25.00
2023-04-18T07:53:56.234Z,29.60
2023-04-18T07:54:56.279Z,34.59
2023-04-18T07:55:56.330Z,36.16
2023-04-18T07:56:57.184Z,31.43
2023-04-18T07:57:56.379Z,32.21
2023-04-18T07:58:56.401Z,29.04
2023-04-18T07:59:56.452Z,28.88
2023-04-18T08:00:56.404Z,34.29
2023-04-18T08:01:56.480Z,43.15
2023-04-18T08:02:56.606Z,48.38
2023-04-18T08:03:56.716Z,53.36
2023-04-18T08:04:56.730Z,56.06
2023-04-18T08:05:56.626Z,62.21
2023-04-18T08:06:56.662Z,67.92
2023-04-18T08:07:56.687Z,69.57
2023-04-18T08:08:56.714Z,65.36
2023-04-18T08:09:56.731Z,55.46
2023-04-18T08:10:56.750Z,56.80
2023-04-18T08:11:56.795Z,55.24
2023-04-18T08:12:56.825Z,47.56
2023-04-18T08:13:56.860Z,44.56
2023-04-18T08:14:56.909Z,41.64
2023-04-18T08:15:57.140Z,37.68
2023-04-18T08:16:57.005Z,38.16
2023-04-18T08:17:57.109Z,31.78
2023-04-18T08:18:57.149Z,26.92
2023-04-18T08:19:57.162Z,25.52
2023-04-18T08:20:57.198Z,24.64
2023-04-18T08:21:57.214Z,25.69
2023-04-18T08:23:07.653Z,25.30
2023-04-18T08:23:58.216Z,24.72
2023-04-18T08:25:04.425Z,24.51
2023-04-18T08:25:58.224Z,22.58
2023-04-18T08:26:57.232Z,25.07
2023-04-18T08:27:57.224Z,29.50
2023-04-18T08:28:57.217Z,38.58
2023-04-18T08:29:57.210Z,54.62
2023-04-18T08:30:57.202Z,62.07
2023-04-18T08:31:57.488Z,66.09
2023-04-18T08:32:57.225Z,70.45
2023-04-18T08:33:57.174Z,73.25
2023-04-18T08:34:57.148Z,77.36
2023-04-18T08:35:57.163Z,83.29
2023-04-18T08:36:57.206Z,85.98
2023-04-18T08:37:57.256Z,89.41
2023-04-18T08:38:57.227Z,93.56
2023-04-18T08:39:57.219Z,96.34
2023-04-18T08:40:57.245Z,98.52
2023-04-18T08:41:57.219Z,101.66
2023-04-18T08:42:57.234Z,105.18
2023-04-18T08:43:57.338Z,110.05
2023-04-18T08:44:57.177Z,114.97
2023-04-18T08:45:57.190Z,118.69
2023-04-18T08:46:57.128Z,122.07
2023-04-18T08:47:57.203Z,123.71
2023-04-18T08:48:57.096Z,126.59
2023-04-18T08:49:57.125Z,127.53
2023-04-18T08:50:57.128Z,132.10
2023-04-18T08:51:57.154Z,134.36
2023-04-18T08:52:57.167Z,136.90
2023-04-18T08:53:57.147Z,139.34
2023-04-18T08:54:57.157Z,141.38
2023-04-18T08:55:57.428Z,142.99
2023-04-18T08:56:57.207Z,146.37
2023-04-18T08:57:57.253Z,148.10
2023-04-18T08:58:57.264Z,151.19
2023-04-18T08:59:57.308Z,153.87
2023-04-18T09:00:57.394Z,157.16
2023-04-18T09:01:57.486Z,158.56
2023-04-18T09:02:57.825Z,162.06
2023-04-18T09:03:57.471Z,163.27
2023-04-18T09:04:57.469Z,164.52
2023-04-18T09:05:57.505Z,167.66
2023-04-18T09:06:57.520Z,168.96
2023-04-18T09:07:57.546Z,171.60
2023-04-18T09:08:57.578Z,173.85
2023-04-18T09:09:57.625Z,176.62
2023-04-18T09:10:57.640Z,179.27
2023-04-18T09:11:57.664Z,181.24
2023-04-18T09:12:57.702Z,183.84
2023-04-18T09:13:57.682Z,183.50
2023-04-18T09:14:57.791Z,185.77
2023-04-18T09:15:57.754Z,187.84
2023-04-18T09:16:57.874Z,188.85
2023-04-18T09:17:57.880Z,189.65
2023-04-18T09:18:57.794Z,191.36
2023-04-18T09:19:57.854Z,192.16
2023-04-18T09:20:57.832Z,193.73
2023-04-18T09:21:57.868Z,196.49
2023-04-18T09:22:57.888Z,200.74
2023-04-18T09:23:57.877Z,204.78
2023-04-18T09:24:57.985Z,204.63
2023-04-18T09:25:57.905Z,207.53
2023-04-18T09:26:57.915Z,208.37
2023-04-18T09:27:57.944Z,210.41
2023-04-18T09:28:57.936Z,211.32
2023-04-18T09:29:58.149Z,213.01
2023-04-18T09:30:58.010Z,214.04
2023-04-18T09:31:57.998Z,216.77
2023-04-18T09:32:58.064Z,219.85
2023-04-18T09:33:58.031Z,224.01
2023-04-18T09:34:58.304Z,220.79
2023-04-18T09:35:58.103Z,221.27
2023-04-18T09:36:58.137Z,223.51
2023-04-18T09:37:58.101Z,224.12
2023-04-18T09:38:58.122Z,228.38
2023-04-18T09:39:58.136Z,226.09
2023-04-18T09:40:58.136Z,228.11
2023-04-18T09:41:58.153Z,229.52
2023-04-18T09:42:58.187Z,231.37
2023-04-18T09:43:58.186Z,234.14
2023-04-18T09:44:58.208Z,235.86
2023-04-18T09:45:58.249Z,237.93
2023-04-18T09:46:58.247Z,237.94
2023-04-18T09:47:58.310Z,241.75
2023-04-18T09:48:58.292Z,242.91
2023-04-18T09:49:58.330Z,245.17
2023-04-18T09:50:58.336Z,250.44
2023-04-18T09:51:58.467Z,246.67
2023-04-18T09:52:58.368Z,247.32
2023-04-18T09:53:58.392Z,248.32
2023-04-18T09:54:58.390Z,249.89
2023-04-18T09:55:58.425Z,249.17
2023-04-18T09:56:58.438Z,249.51
2023-04-18T09:57:58.461Z,249.19
2023-04-18T09:58:58.456Z,248.29
2023-04-18T09:59:58.634Z,249.13
2023-04-18T10:00:58.478Z,248.45
2023-04-18T10:01:58.615Z,250.02
2023-04-18T10:02:58.573Z,249.86
2023-04-18T10:03:58.581Z,249.94
2023-04-18T10:04:58.582Z,250.09
2023-04-18T10:05:58.556Z,250.31
2023-04-18T10:06:58.514Z,249.75
2023-04-18T10:07:58.521Z,250.00
2023-04-18T10:08:58.526Z,249.41
2023-04-18T10:09:58.526Z,246.72
2023-04-18T10:10:58.540Z,247.35
2023-04-18T10:11:58.530Z,246.29
2023-04-18T10:12:58.549Z,246.71
2023-04-18T10:13:58.546Z,245.46
2023-04-18T10:14:58.577Z,245.41
2023-04-18T10:15:58.680Z,244.29
2023-04-18T10:16:58.599Z,244.74
2023-04-18T10:18:04.289Z,243.26
2023-04-18T10:18:59.596Z,243.36
2023-04-18T10:19:58.559Z,243.45
2023-04-18T10:21:00.257Z,243.18
2023-04-18T10:22:00.147Z,242.70
2023-04-18T10:22:58.457Z,243.21
2023-04-18T10:23:59.155Z,241.71
2023-04-18T10:24:58.369Z,242.12
2023-04-18T10:25:58.435Z,240.19
2023-04-18T10:26:58.333Z,242.04
2023-04-18T10:27:58.360Z,241.14
2023-04-18T10:28:58.392Z,241.11
2023-04-18T10:29:58.392Z,241.28
2023-04-18T10:30:58.409Z,240.58
2023-04-18T10:31:58.422Z,241.10
2023-04-18T10:32:58.443Z,241.09
2023-04-18T10:34:04.507Z,239.99
2023-04-18T10:34:59.390Z,240.09
2023-04-18T10:35:58.373Z,240.49
2023-04-18T10:36:58.343Z,240.49
2023-04-18T10:37:58.317Z,240.33
2023-04-18T10:38:58.424Z,240.19
2023-04-18T10:39:58.292Z,240.04
2023-04-18T10:40:58.260Z,238.51
2023-04-18T10:41:58.221Z,238.72
2023-04-18T10:42:58.241Z,238.20
2023-04-18T10:43:58.180Z,238.35
2023-04-18T10:44:58.144Z,237.72
2023-04-18T10:45:58.133Z,237.86
2023-04-18T10:46:58.733Z,236.71
2023-04-18T10:47:58.112Z,237.55
2023-04-18T10:48:58.048Z,236.42
2023-04-18T10:49:58.667Z,236.66
2023-04-18T10:50:58.023Z,236.30
2023-04-18T10:51:57.974Z,236.14
2023-04-18T10:52:57.954Z,235.39
2023-04-18T10:53:57.925Z,235.08
2023-04-18T10:54:59.226Z,234.58
2023-04-18T10:55:57.903Z,234.58
2023-04-18T10:56:57.904Z,233.93
2023-04-18T10:57:57.828Z,233.16
2023-04-18T10:58:57.802Z,233.27
2023-04-18T10:59:57.769Z,232.97
2023-04-18T11:00:57.808Z,232.61
2023-04-18T11:01:57.766Z,232.24
2023-04-18T11:02:57.990Z,232.49
2023-04-18T11:03:57.763Z,232.25
2023-04-18T11:04:57.681Z,231.70
2023-04-18T11:05:57.652Z,231.22
2023-04-18T11:06:57.640Z,231.01
2023-04-18T11:07:57.598Z,230.65
2023-04-18T11:08:57.573Z,231.02
2023-04-18T11:09:57.597Z,230.70
2023-04-18T11:10:57.508Z,230.26
2023-04-18T11:11:57.490Z,229.74
2023-04-18T11:12:57.459Z,229.31
2023-04-18T11:13:57.440Z,228.71
2023-04-18T11:14:57.432Z,228.76
2023-04-18T11:15:57.387Z,229.04
2023-04-18T11:16:57.389Z,228.46
2023-04-18T11:17:57.519Z,228.13
2023-04-18T11:18:57.311Z,227.88
2023-04-18T11:19:57.267Z,227.89
2023-04-18T11:20:57.247Z,227.54
2023-04-18T11:21:57.222Z,227.08
2023-04-18T11:22:57.190Z,227.19
2023-04-18T11:23:57.196Z,226.69
2023-04-18T11:24:57.151Z,226.58
2023-04-18T11:25:57.130Z,226.07
2023-04-18T11:26:57.105Z,225.67
2023-04-18T11:27:57.086Z,225.51
2023-04-18T11:28:57.062Z,225.15
2023-04-18T11:29:57.039Z,225.12
2023-04-18T11:30:57.019Z,225.58
2023-04-18T11:31:58.568Z,224.65
2023-04-18T11:32:57.013Z,224.46
2023-04-18T11:33:56.950Z,224.15
2023-04-18T11:34:56.926Z,223.83
2023-04-18T11:35:56.893Z,223.78
2023-04-18T11:36:56.870Z,223.41
2023-04-18T11:37:56.859Z,223.25
2023-04-18T11:38:56.830Z,222.83
2023-04-18T11:39:56.820Z,222.47
2023-04-18T11:40:56.793Z,222.05
2023-04-18T11:41:56.771Z,221.86
2023-04-18T11:42:56.747Z,221.55
2023-04-18T11:43:56.737Z,221.33
2023-04-18T11:44:56.709Z,221.27
2023-04-18T11:45:56.721Z,221.12
2023-04-18T11:46:56.682Z,220.87
2023-04-18T11:47:56.684Z,220.78
2023-04-18T11:48:56.642Z,220.23
2023-04-18T11:49:57.204Z,219.99
2023-04-18T11:50:56.584Z,219.54
2023-04-18T11:51:56.579Z,218.96
2023-04-18T11:52:56.559Z,218.86
2023-04-18T11:53:56.534Z,218.46
2023-04-18T11:54:56.558Z,218.25
2023-04-18T11:55:56.515Z,218.32
2023-04-18T11:56:56.517Z,217.15
2023-04-18T11:57:56.527Z,216.70
2023-04-18T11:58:56.528Z,216.32
2023-04-18T11:59:56.536Z,216.13
2023-04-18T12:00:56.516Z,215.79
2023-04-18T12:01:58.764Z,215.98
2023-04-18T12:02:56.601Z,215.26
2023-04-18T12:03:56.658Z,215.00
2023-04-18T12:04:56.901Z,214.84
2023-04-18T12:05:56.614Z,214.53
2023-04-18T12:06:56.553Z,214.01
2023-04-18T12:07:56.548Z,213.27
2023-04-18T12:08:56.547Z,213.31
2023-04-18T12:09:56.551Z,212.74
2023-04-18T12:10:56.545Z,212.13
2023-04-18T12:11:56.629Z,212.18
2023-04-18T12:12:57.239Z,211.07
2023-04-18T12:13:56.547Z,211.07
2023-04-18T12:14:56.552Z,210.91
2023-04-18T12:15:56.598Z,210.22
2023-04-18T12:16:56.557Z,210.16
2023-04-18T12:17:56.569Z,209.81
2023-04-18T12:18:56.562Z,209.64
2023-04-18T12:19:56.563Z,209.33
2023-04-18T12:20:56.551Z,208.79
2023-04-18T12:21:56.554Z,208.36
2023-04-18T12:22:57.203Z,207.43
2023-04-18T12:23:56.566Z,207.51
2023-04-18T12:24:56.568Z,207.16
2023-04-18T12:25:56.564Z,207.08
2023-04-18T12:26:56.569Z,206.60
2023-04-18T12:27:56.576Z,206.67
2023-04-18T12:28:56.575Z,206.66
2023-04-18T12:29:56.660Z,206.76
2023-04-18T12:30:56.599Z,206.26
2023-04-18T12:31:56.845Z,205.18
2023-04-18T12:32:56.658Z,205.13
2023-04-18T12:33:56.617Z,204.36
2023-04-18T12:34:56.627Z,204.09
2023-04-18T12:35:56.615Z,203.85
2023-04-18T12:36:56.628Z,203.20
2023-04-18T12:37:56.640Z,202.74
2023-04-18T12:38:56.633Z,202.59
2023-04-18T12:39:56.648Z,202.35
2023-04-18T12:40:56.641Z,201.95